Time;durP1;ratioP1;P1;durP2;ratioP2;P2;SDS_P1;SDS_P2;PMS_P1;PMS_P2;Temp;Humidity;BMP_temperature;BMP_pressure;BME280_temperature;BME280_humidity;BME280_pressure;Samples;Min_cycle;Max_cycle;Signal;HPM_P1;HPM_P2
2022/12/14 00:00:40;;;;;;;3.20;2.50;;;;;;;1.64;nan;-23861.47;5032081;28;20188;-80
2022/12/14 00:03:05;;;;;;;2.33;2.13;;;;;;;1.80;nan;-23866.03;5033422;28;20223;-81
2022/12/14 00:05:31;;;;;;;3.63;2.93;;;;;;;1.94;nan;-23869.88;5033936;28;20642;-81
2022/12/14 00:07:56;;;;;;;2.40;2.20;;;;;;;1.61;nan;-23860.59;5033315;28;20556;-81
2022/12/14 00:10:22;;;;;;;3.40;2.10;;;;;;;1.78;nan;-23865.47;5031545;28;20203;-79
2022/12/14 00:12:47;;;;;;;2.13;1.97;;;;;;;1.96;nan;-23870.47;5032870;28;20184;-83
2022/12/14 00:15:13;;;;;;;4.57;2.43;;;;;;;2.00;nan;-23871.75;5032832;28;20187;-82
2022/12/14 00:17:38;;;;;;;2.10;1.90;;;;;;;1.63;nan;-23861.31;5033435;28;20565;-84
2022/12/14 00:20:04;;;;;;;3.40;2.43;;;;;;;1.71;nan;-23863.47;5031604;28;20622;-81
2022/12/14 00:22:30;;;;;;;3.10;2.53;;;;;;;1.90;nan;-23868.75;5031418;28;20665;-81
2022/12/14 00:24:55;;;;;;;5.50;2.40;;;;;;;2.01;nan;-23871.88;5032255;28;20605;-81
2022/12/14 00:27:20;;;;;;;6.43;2.70;;;;;;;1.76;nan;-23864.88;5035410;28;20164;-82
2022/12/14 00:29:46;;;;;;;2.60;2.40;;;;;;;1.65;nan;-23861.88;5034978;28;20179;-81
2022/12/14 00:32:11;;;;;;;2.20;1.90;;;;;;;1.71;nan;-23863.47;5036133;28;20171;-81
2022/12/14 00:34:36;;;;;;;2.20;2.03;;;;;;;1.46;nan;-23856.47;5034429;28;20577;-81
2022/12/14 00:37:02;;;;;;;2.63;2.00;;;;;;;1.94;nan;-23870.03;5035148;28;20551;-81
2022/12/14 00:39:27;;;;;;;2.73;2.37;;;;;;;1.78;nan;-23865.47;5032573;28;20186;-78
2022/12/14 00:41:53;;;;;;;3.47;2.60;;;;;;;1.63;nan;-23861.31;5032346;28;20186;-80
2022/12/14 00:44:18;;;;;;;2.03;1.93;;;;;;;1.81;nan;-23866.16;5032810;28;20182;-82
2022/12/14 00:46:44;;;;;;;5.77;2.43;;;;;;;1.74;nan;-23864.47;5033245;28;20692;-81
2022/12/14 00:49:10;;;;;;;3.80;2.80;;;;;;;1.87;nan;-23867.88;5031017;28;20176;-78
2022/12/14 00:51:35;;;;;;;3.40;2.50;;;;;;;1.51;nan;-23857.75;5032495;28;20290;-80
2022/12/14 00:54:00;;;;;;;2.27;2.13;;;;;;;1.77;nan;-23865.31;5031249;28;20179;-83
2022/12/14 00:56:26;;;;;;;2.13;1.97;;;;;;;1.93;nan;-23869.59;5032954;28;20257;-81
2022/12/14 00:58:52;;;;;;;2.77;2.30;;;;;;;1.87;nan;-23868.03;5030907;28;20603;-81
2022/12/14 01:01:19;;;;;;;4.77;2.60;;;;;;;1.65;nan;-23861.88;5032042;28;20188;-76
2022/12/14 01:03:44;;;;;;;5.10;2.73;;;;;;;1.98;nan;-23871.03;5032381;28;20237;-83
2022/12/14 01:06:20;;;;;;;4.07;2.30;;;;;;;2.03;nan;-23872.47;5032510;28;20184;-81
2022/12/14 01:08:47;;;;;;;3.17;2.47;;;;;;;1.64;nan;-23861.47;5030323;28;20265;-81
2022/12/14 01:11:13;;;;;;;3.10;2.80;;;;;;;1.89;nan;-23868.47;5032160;28;20203;-82
2022/12/14 01:13:40;;;;;;;2.43;2.23;;;;;;;1.95;nan;-23870.31;5030724;28;20638;-77
2022/12/14 01:16:12;;;;;;;4.67;3.10;;;;;;;1.97;nan;-23870.75;5030546;28;20186;-85
2022/12/14 01:18:39;;;;;;;2.57;1.97;;;;;;;1.79;nan;-23865.75;5032678;28;20217;-80
2022/12/14 01:21:19;;;;;;;3.03;1.93;;;;;;;1.74;nan;-23864.47;5031504;28;20190;-82
2022/12/14 01:23:46;;;;;;;2.37;2.17;;;;;;;1.94;nan;-23869.88;5029989;28;20297;-80
2022/12/14 01:26:14;;;;;;;2.47;2.27;;;;;;;1.82;nan;-23866.47;5031814;28;20266;-82
2022/12/14 01:28:40;;;;;;;2.87;2.30;;;;;;;2.06;nan;-23873.31;5030165;28;20650;-84
2022/12/14 01:31:11;;;;;;;4.30;2.40;;;;;;;1.95;nan;-23870.31;5030795;28;20214;-79
2022/12/14 01:33:37;;;;;;;4.93;2.17;;;;;;;1.86;nan;-23867.59;5029791;28;20172;-80
2022/12/14 01:36:11;;;;;;;10.03;2.63;;;;;;;1.69;nan;-23863.03;5031605;28;20182;-80
2022/12/14 01:38:37;;;;;;;3.77;2.77;;;;;;;2.03;nan;-23872.47;5030488;28;20213;-79
2022/12/14 01:41:03;;;;;;;3.57;2.57;;;;;;;1.62;nan;-23861.03;5031820;28;20222;-81
2022/12/14 01:43:52;;;;;;;4.00;2.63;;;;;;;2.04;nan;-23872.88;5031500;28;20305;-80
2022/12/14 01:46:24;;;;;;;2.43;2.23;;;;;;;1.53;nan;-23858.31;5030077;28;20321;-80
2022/12/14 01:48:54;;;;;;;2.63;2.23;;;;;;;1.52;nan;-23858.16;5032568;28;20229;-83
2022/12/14 01:51:20;;;;;;;9.00;3.47;;;;;;;1.75;nan;-23864.59;5030188;28;20623;-80
2022/12/14 01:53:47;;;;;;;3.63;2.23;;;;;;;2.00;nan;-23871.59;5036008;28;20223;-83
2022/12/14 01:56:13;;;;;;;3.90;2.40;;;;;;;1.97;nan;-23870.75;5023215;28;20180;-82
2022/12/14 01:58:39;;;;;;;2.93;2.43;;;;;;;2.00;nan;-23871.59;5031891;28;20237;-82
2022/12/14 02:01:04;;;;;;;3.97;2.80;;;;;;;1.95;nan;-23870.16;5030158;28;20172;-80
2022/12/14 02:03:33;;;;;;;3.93;1.93;;;;;;;1.98;nan;-23871.03;5030361;28;20238;-76
2022/12/14 02:06:09;;;;;;;2.43;2.23;;;;;;;1.98;nan;-23871.19;5036855;28;20668;-84
2022/12/14 02:08:36;;;;;;;3.80;2.93;;;;;;;1.85;nan;-23867.31;5037559;28;20246;-78
2022/12/14 02:11:02;;;;;;;3.23;2.57;;;;;;;1.92;nan;-23869.31;5029549;28;20210;-82
2022/12/14 02:13:35;;;;;;;3.50;2.73;;;;;;;1.73;nan;-23864.03;5029246;28;20171;-79
2022/12/14 02:16:01;;;;;;;4.43;2.57;;;;;;;0.66;nan;-23833.84;5031369;28;20194;-80
2022/12/14 02:18:29;;;;;;;9.10;3.07;;;;;;;2.02;nan;-23872.16;5032079;28;20159;-80
2022/12/14 02:21:07;;;;;;;4.00;2.10;;;;;;;2.10;nan;-23874.59;5034234;28;20172;-82
2022/12/14 02:24:09;;;;;;;3.77;2.70;;;;;;;2.02;nan;-23872.16;5032923;28;20634;-81
2022/12/14 02:27:06;;;;;;;3.47;2.50;;;;;;;1.96;nan;-23870.47;5034639;28;20262;-82
2022/12/14 02:29:51;;;;;;;3.47;2.47;;;;;;;1.82;nan;-23866.59;5033165;28;20286;-78
2022/12/14 02:32:29;;;;;;;2.80;1.93;;;;;;;1.95;nan;-23870.16;5025060;28;20191;-77
2022/12/14 02:35:42;;;;;;;7.70;2.90;;;;;;;1.93;nan;-23869.75;5034167;28;20236;-80
2022/12/14 02:38:31;;;;;;;6.83;3.10;;;;;;;1.89;nan;-23868.59;5028804;28;20759;-81
2022/12/14 02:41:29;;;;;;;2.47;2.17;;;;;;;1.81;nan;-23866.16;5034615;28;20252;-82
2022/12/14 02:44:25;;;;;;;2.50;2.27;;;;;;;1.75;nan;-23864.59;5028202;28;20796;-81
2022/12/14 02:47:05;;;;;;;3.67;2.17;;;;;;;1.73;nan;-23864.16;5034741;28;20163;-82
2022/12/14 02:50:06;;;;;;;2.93;2.13;;;;;;;1.38;nan;-23854.16;5034645;28;20186;-79
2022/12/14 02:52:45;;;;;;;3.87;2.50;;;;;;;1.90;nan;-23868.75;5012035;28;20656;-78
2022/12/14 02:55:27;;;;;;;2.10;1.97;;;;;;;1.89;nan;-23868.59;5032034;28;20697;-81
2022/12/14 02:57:55;;;;;;;2.43;2.23;;;;;;;1.87;nan;-23868.03;5034697;28;20254;-78
2022/12/14 03:00:20;;;;;;;7.67;2.87;;;;;;;1.93;nan;-23869.75;5033132;28;20183;-80
2022/12/14 03:02:47;;;;;;;6.10;3.03;;;;;;;1.80;nan;-23865.88;5034028;28;20253;-80
2022/12/14 03:05:13;;;;;;;3.53;1.93;;;;;;;1.92;nan;-23869.47;5035861;28;20560;-78
2022/12/14 03:07:48;;;;;;;2.80;2.30;;;;;;;1.52;nan;-23858.03;5034604;28;20187;-81
2022/12/14 03:10:47;;;;;;;2.10;1.90;;;;;;;1.83;nan;-23866.75;5034003;28;20199;-80
2022/12/14 03:13:24;;;;;;;4.83;2.67;;;;;;;1.81;nan;-23866.16;5034373;28;20191;-82
2022/12/14 03:15:57;;;;;;;3.53;2.57;;;;;;;1.75;nan;-23864.75;5014432;28;20306;-84
2022/12/14 03:18:24;;;;;;;3.27;2.63;;;;;;;1.38;nan;-23854.16;5014073;28;20175;-80
2022/12/14 03:20:54;;;;;;;5.73;2.40;;;;;;;1.77;nan;-23865.31;5013002;28;20748;-79
2022/12/14 03:23:25;;;;;;;3.37;1.90;;;;;;;1.68;nan;-23862.75;5012691;28;20259;-83
2022/12/14 03:26:01;;;;;;;2.27;1.93;;;;;;;1.71;nan;-23863.59;5013006;28;20171;-83
2022/12/14 03:28:52;;;;;;;2.13;1.97;;;;;;;1.67;nan;-23862.47;5013798;28;20180;-79
2022/12/14 03:31:29;;;;;;;2.20;2.00;;;;;;;1.51;nan;-23857.75;5012046;28;20285;-79
2022/12/14 03:33:57;;;;;;;3.80;2.33;;;;;;;1.67;nan;-23862.47;5013500;28;20176;-79
2022/12/14 03:36:52;;;;;;;3.07;2.10;;;;;;;1.77;nan;-23865.31;5014073;28;20637;-82
2022/12/14 03:39:24;;;;;;;1.70;1.60;;;;;;;1.70;nan;-23863.31;5011204;28;20469;-82
2022/12/14 03:42:04;;;;;;;3.17;2.37;;;;;;;1.42;nan;-23855.31;5014083;28;20172;-78
2022/12/14 03:44:29;;;;;;;4.70;2.20;;;;;;;1.76;nan;-23864.88;5012337;28;20172;-78
2022/12/14 03:47:09;;;;;;;3.33;2.37;;;;;;;1.44;nan;-23855.75;5032806;28;20190;-79
2022/12/14 03:50:10;;;;;;;3.57;2.33;;;;;;;1.48;nan;-23857.03;5033382;28;20181;-80
2022/12/14 03:52:48;;;;;;;3.13;2.57;;;;;;;1.46;nan;-23856.31;5011361;28;20198;-80
2022/12/14 03:55:42;;;;;;;3.63;2.63;;;;;;;1.36;nan;-23853.59;5031717;28;20191;-80
2022/12/14 03:58:26;;;;;;;2.67;2.00;;;;;;;1.81;nan;-23866.16;5033644;28;20183;-79
2022/12/14 04:01:13;;;;;;;1.83;1.67;;;;;;;1.81;nan;-23866.16;5032334;28;20187;-82
2022/12/14 04:03:48;;;;;;;1.80;1.70;;;;;;;1.72;nan;-23863.88;5031352;28;20230;-82
2022/12/14 04:06:20;;;;;;;4.50;3.17;;;;;;;1.52;nan;-23858.03;5033828;28;20183;-80
2022/12/14 04:08:48;;;;;;;6.07;2.77;;;;;;;1.40;nan;-23854.75;5034720;28;20254;-81
2022/12/14 04:19:51;;;;;;;2.17;2.00;;;;;;;1.46;nan;-23856.31;5032634;28;20261;-81
2022/12/14 04:22:21;;;;;;;6.00;2.27;;;;;;;0.88;nan;-23840.00;5035024;28;20305;-81
2022/12/14 04:27:50;;;;;;;4.40;2.57;;;;;;;1.25;nan;-23850.44;5033334;28;20186;-78
2022/12/14 04:30:16;;;;;;;3.57;2.30;;;;;;;1.48;nan;-23857.03;5033233;28;20199;-79
2022/12/14 04:36:02;;;;;;;2.27;2.07;;;;;;;1.41;nan;-23855.03;5021532;28;20332;-83
2022/12/14 04:38:33;;;;;;;2.40;2.20;;;;;;;1.07;nan;-23845.31;5034915;28;20179;-82
2022/12/14 04:41:04;;;;;;;2.50;2.30;;;;;;;1.37;nan;-23853.88;5032626;28;20182;-79
2022/12/14 04:43:38;;;;;;;6.70;2.53;;;;;;;1.28;nan;-23851.31;5034886;28;20686;-81
2022/12/14 04:46:11;;;;;;;3.10;2.33;;;;;;;1.44;nan;-23855.75;5034469;28;20244;-78
2022/12/14 04:48:47;;;;;;;5.23;3.10;;;;;;;1.61;nan;-23860.75;5034564;28;20183;-80
2022/12/14 04:51:20;;;;;;;7.27;2.17;;;;;;;1.12;nan;-23846.88;5033184;28;20270;-82
2022/12/14 04:53:52;;;;;;;4.20;2.47;;;;;;;1.43;nan;-23855.59;5036990;28;20233;-77
2022/12/14 04:56:26;;;;;;;2.50;2.30;;;;;;;1.11;nan;-23846.59;5044284;28;20208;-78
2022/12/14 04:58:52;;;;;;;2.97;1.87;;;;;;;0.88;nan;-23840.16;5034195;28;20190;-83
2022/12/14 05:01:47;;;;;;;3.53;2.23;;;;;;;1.08;nan;-23845.59;5035787;28;20247;-79
2022/12/14 05:04:41;;;;;;;2.50;1.97;;;;;;;1.32;nan;-23852.44;5032326;28;20223;-81
2022/12/14 05:07:15;;;;;;;1.70;1.60;;;;;;;1.10;nan;-23846.16;5033664;28;20247;-81
2022/12/14 05:09:41;;;;;;;2.10;1.90;;;;;;;0.75;nan;-23836.44;5033832;28;20268;-81
2022/12/14 05:12:14;;;;;;;3.17;2.87;;;;;;;0.81;nan;-23838.00;5033438;28;20204;-79
2022/12/14 05:14:48;;;;;;;3.73;2.60;;;;;;;0.62;nan;-23832.56;5035789;28;20556;-79
2022/12/14 05:17:14;;;;;;;4.60;2.20;;;;;;;0.66;nan;-23833.72;5034754;28;20214;-81
2022/12/14 05:19:47;;;;;;;3.90;2.43;;;;;;;0.22;nan;-23821.25;5038580;28;20187;-81
2022/12/14 05:22:13;;;;;;;2.87;2.27;;;;;;;0.68;nan;-23834.28;5033216;28;20233;-78
2022/12/14 05:24:39;;;;;;;3.83;2.93;;;;;;;0.60;nan;-23832.00;5035570;28;20237;-78
2022/12/14 05:27:05;;;;;;;6.17;2.87;;;;;;;0.38;nan;-23825.84;5032423;28;20190;-82
2022/12/14 05:29:30;;;;;;;3.93;2.87;;;;;;;0.43;nan;-23827.28;5031229;28;20179;-81
2022/12/14 05:31:56;;;;;;;5.80;2.70;;;;;;;0.75;nan;-23836.28;5031953;28;20207;-79
2022/12/14 05:34:21;;;;;;;4.03;2.73;;;;;;;0.54;nan;-23830.44;5030500;28;20181;-81
2022/12/14 05:36:46;;;;;;;5.40;3.47;;;;;;;0.38;nan;-23825.84;5029768;28;20182;-78
2022/12/14 05:39:13;;;;;;;3.57;3.10;;;;;;;0.54;nan;-23830.44;5029633;28;20192;-79
2022/12/14 05:41:38;;;;;;;5.00;2.93;;;;;;;0.58;nan;-23831.56;5030934;28;20258;-81
2022/12/14 05:44:04;;;;;;;5.07;2.40;;;;;;;0.69;nan;-23834.72;5031490;28;20318;-82
2022/12/14 05:46:29;;;;;;;3.33;2.57;;;;;;;0.83;nan;-23838.72;5029196;28;20348;-81
2022/12/14 05:48:55;;;;;;;6.60;2.70;;;;;;;0.86;nan;-23839.59;5029483;28;20217;-74
2022/12/14 05:51:20;;;;;;;4.27;3.27;;;;;;;0.95;nan;-23841.88;5029261;28;20620;-83
2022/12/14 05:53:46;;;;;;;2.80;2.10;;;;;;;0.71;nan;-23835.16;5032484;28;20182;-80
2022/12/14 05:56:11;;;;;;;5.53;2.93;;;;;;;0.95;nan;-23841.88;5033093;28;20190;-80
2022/12/14 05:58:37;;;;;;;3.80;2.80;;;;;;;1.01;nan;-23843.59;5033615;28;20174;-80
2022/12/14 06:01:06;;;;;;;5.20;4.03;;;;;;;0.92;nan;-23841.00;5034328;28;20189;-82
2022/12/14 06:03:31;;;;;;;5.87;3.53;;;;;;;1.02;nan;-23843.88;5035219;28;20221;-83
2022/12/14 06:06:05;;;;;;;5.47;3.43;;;;;;;1.11;nan;-23846.59;5033345;28;20543;-80
2022/12/14 06:08:36;;;;;;;5.13;2.87;;;;;;;1.05;nan;-23844.88;5031101;28;20194;-79
2022/12/14 06:11:15;;;;;;;4.03;2.57;;;;;;;1.01;nan;-23843.72;5032207;28;20282;-78
2022/12/14 06:13:42;;;;;;;3.30;2.93;;;;;;;0.67;nan;-23834.16;5033278;28;20165;-79
2022/12/14 06:16:16;;;;;;;3.10;2.53;;;;;;;0.75;nan;-23836.44;5033549;28;20179;-81
2022/12/14 06:18:43;;;;;;;2.43;2.23;;;;;;;0.90;nan;-23840.59;5032160;28;20175;-78
2022/12/14 06:21:09;;;;;;;6.03;2.80;;;;;;;0.80;nan;-23837.72;5033188;28;20179;-79
2022/12/14 06:23:35;;;;;;;3.00;2.33;;;;;;;1.03;nan;-23844.16;5033304;28;20278;-82
2022/12/14 06:26:01;;;;;;;3.20;2.60;;;;;;;0.76;nan;-23836.56;5034434;28;20260;-80
2022/12/14 06:28:26;;;;;;;3.90;2.40;;;;;;;1.02;nan;-23844.00;5034156;28;20176;-78
2022/12/14 06:30:51;;;;;;;4.43;2.83;;;;;;;1.07;nan;-23845.44;5032677;28;20202;-80
2022/12/14 06:33:17;;;;;;;3.10;2.40;;;;;;;1.30;nan;-23852.03;5033046;28;20191;-82
2022/12/14 06:35:44;;;;;;;3.57;2.50;;;;;;;1.24;nan;-23850.31;5032372;28;20248;-81
2022/12/14 06:38:11;;;;;;;1.97;1.77;;;;;;;1.23;nan;-23849.88;5034414;28;20183;-83
2022/12/14 06:40:36;;;;;;;3.37;2.50;;;;;;;0.93;nan;-23841.28;5033812;28;20226;-79
2022/12/14 06:43:02;;;;;;;2.80;2.40;;;;;;;1.85;nan;-23867.31;5034024;28;20666;-81
2022/12/14 06:45:28;;;;;;;3.47;2.03;;;;;;;1.79;nan;-23865.75;5034217;28;20251;-81
2022/12/14 06:47:55;;;;;;;5.13;2.80;;;;;;;1.62;nan;-23860.88;5033491;28;20661;-83
2022/12/14 06:50:21;;;;;;;3.83;2.87;;;;;;;2.11;nan;-23874.75;5033602;28;20322;-83
2022/12/14 06:52:50;;;;;;;8.60;3.23;;;;;;;1.90;nan;-23868.75;5032581;28;20270;-84
2022/12/14 06:55:15;;;;;;;6.10;3.87;;;;;;;2.38;nan;-23882.44;5031722;28;20330;-80
2022/12/14 06:57:41;;;;;;;4.13;3.10;;;;;;;1.97;nan;-23870.88;5031800;28;20274;-81
2022/12/14 07:00:10;;;;;;;4.87;3.03;;;;;;;2.58;nan;-23888.03;5032225;28;20175;-79
2022/12/14 07:02:36;;;;;;;8.20;4.10;;;;;;;2.73;nan;-23892.16;5033591;28;20228;-82
2022/12/14 07:05:02;;;;;;;4.73;3.23;;;;;;;2.97;nan;-23899.00;5030667;28;20171;-81
2022/12/14 07:07:27;;;;;;;5.23;4.23;;;;;;;3.36;nan;-23910.00;5032546;28;20819;-80
2022/12/14 07:09:53;;;;;;;5.50;3.80;;;;;;;3.16;nan;-23904.28;5032400;28;20180;-82
2022/12/14 07:12:18;;;;;;;4.10;3.17;;;;;;;3.06;nan;-23901.56;5033486;28;20206;-81
2022/12/14 07:14:44;;;;;;;7.33;3.90;;;;;;;3.52;nan;-23914.69;5032340;28;20655;-82
2022/12/14 07:17:09;;;;;;;4.70;3.00;;;;;;;3.69;nan;-23919.41;5032246;28;20179;-78
2022/12/14 07:19:34;;;;;;;6.10;3.23;;;;;;;3.95;nan;-23926.66;5031751;28;20234;-81
2022/12/14 07:22:03;;;;;;;4.13;3.10;;;;;;;3.98;nan;-23927.66;5033354;28;20557;-82
2022/12/14 07:24:29;;;;;;;8.30;3.93;;;;;;;3.58;nan;-23916.13;5031813;28;20211;-80
2022/12/14 07:26:55;;;;;;;8.53;3.67;;;;;;;4.11;nan;-23931.22;5031755;28;20540;-76
2022/12/14 07:29:21;;;;;;;4.97;3.87;;;;;;;4.03;nan;-23928.94;5031813;28;20180;-82
2022/12/14 07:31:47;;;;;;;5.23;3.00;;;;;;;4.01;nan;-23928.38;5031316;28;20272;-79
2022/12/14 07:34:12;;;;;;;5.40;4.07;;;;;;;4.30;nan;-23936.63;5032671;28;20245;-83
2022/12/14 07:36:38;;;;;;;4.83;3.97;;;;;;;4.30;nan;-23936.63;5033257;28;20163;-81
2022/12/14 07:39:04;;;;;;;6.73;3.67;;;;;;;4.35;nan;-23938.06;5032989;28;20682;-81
2022/12/14 07:41:31;;;;;;;5.10;3.57;;;;;;;4.44;nan;-23940.63;5033008;28;20282;-84
2022/12/14 07:43:58;;;;;;;6.03;3.67;;;;;;;4.61;nan;-23945.16;5031889;28;20229;-81
2022/12/14 07:46:26;;;;;;;3.83;2.90;;;;;;;4.40;nan;-23939.34;5031503;28;20179;-80
2022/12/14 07:48:54;;;;;;;4.63;3.57;;;;;;;4.28;nan;-23936.06;5031737;28;20179;-81
2022/12/14 07:51:23;;;;;;;4.13;3.37;;;;;;;4.22;nan;-23934.22;5032720;28;20242;-78
2022/12/14 07:53:49;;;;;;;4.60;2.43;;;;;;;4.79;nan;-23950.28;5032440;28;20167;-78
2022/12/14 07:56:19;;;;;;;4.10;3.23;;;;;;;4.77;nan;-23949.72;5031397;28;20175;-79
2022/12/14 07:58:45;;;;;;;6.03;3.70;;;;;;;4.73;nan;-23948.59;5031415;28;20274;-81
2022/12/14 08:01:13;;;;;;;6.20;3.00;;;;;;;4.52;nan;-23942.59;5032756;28;20163;-79
2022/12/14 08:03:39;;;;;;;3.63;3.00;;;;;;;3.97;nan;-23927.38;5032804;28;20234;-82
2022/12/14 08:06:07;;;;;;;4.60;3.27;;;;;;;4.71;nan;-23948.16;5033119;28;20175;-80
2022/12/14 08:08:33;;;;;;;4.83;2.83;;;;;;;4.79;nan;-23950.44;5030662;28;20175;-83
2022/12/14 08:10:59;;;;;;;6.37;4.30;;;;;;;5.10;nan;-23959.13;5032211;28;20202;-81
2022/12/14 08:13:25;;;;;;;8.37;3.47;;;;;;;4.81;nan;-23950.84;5030881;28;20194;-81
2022/12/14 08:15:50;;;;;;;6.13;3.40;;;;;;;4.95;nan;-23954.84;5032320;28;20180;-80
2022/12/14 08:18:17;;;;;;;4.37;2.97;;;;;;;4.60;nan;-23945.03;5032337;28;20168;-82
2022/12/14 08:20:42;;;;;;;5.10;2.77;;;;;;;4.65;nan;-23946.31;5030131;28;20183;-82
2022/12/14 08:23:07;;;;;;;2.77;2.47;;;;;;;4.63;nan;-23945.88;5030992;28;20252;-83
2022/12/14 08:25:33;;;;;;;6.17;3.03;;;;;;;5.02;nan;-23956.84;5030758;28;20273;-82
2022/12/14 08:27:58;;;;;;;4.07;3.27;;;;;;;5.03;nan;-23956.97;5034633;28;20195;-81
2022/12/14 08:30:24;;;;;;;6.93;3.80;;;;;;;4.92;nan;-23954.00;5032002;28;20195;-79
2022/12/14 08:32:49;;;;;;;5.40;2.90;;;;;;;5.14;nan;-23960.25;5030436;28;20189;-84
2022/12/14 08:35:15;;;;;;;3.67;3.00;;;;;;;4.98;nan;-23955.56;5031623;28;20191;-78
2022/12/14 08:37:40;;;;;;;4.33;3.23;;;;;;;4.85;nan;-23952.16;5030383;28;20627;-79
2022/12/14 08:40:07;;;;;;;4.57;3.30;;;;;;;5.21;nan;-23962.09;5030125;28;20305;-79
2022/12/14 08:42:33;;;;;;;3.83;2.67;;;;;;;4.77;nan;-23949.72;5030821;28;20168;-77
2022/12/14 08:44:58;;;;;;;2.50;2.30;;;;;;;4.57;nan;-23944.03;5029756;28;20233;-79
2022/12/14 08:47:24;;;;;;;3.50;2.73;;;;;;;4.40;nan;-23939.47;5031043;28;20207;-82
2022/12/14 08:49:49;;;;;;;4.60;2.80;;;;;;;4.84;nan;-23951.72;5030582;28;20685;-83
2022/12/14 08:52:15;;;;;;;5.33;2.77;;;;;;;4.87;nan;-23952.56;5030312;28;20217;-82
2022/12/14 08:54:40;;;;;;;7.70;3.33;;;;;;;4.59;nan;-23944.59;5031280;28;20177;-81
2022/12/14 08:57:06;;;;;;;4.20;3.03;;;;;;;5.04;nan;-23957.41;5031765;28;20912;-82
2022/12/14 08:59:31;;;;;;;4.33;3.30;;;;;;;5.32;nan;-23965.22;5029939;28;20278;-87
2022/12/14 09:01:57;;;;;;;5.40;2.83;;;;;;;5.27;nan;-23963.94;5030054;28;20575;-81
2022/12/14 09:04:25;;;;;;;7.13;3.70;;;;;;;5.69;nan;-23975.59;5030270;28;20634;-82
2022/12/14 09:06:50;;;;;;;4.20;3.03;;;;;;;5.53;nan;-23971.06;5031439;28;20251;-84
2022/12/14 09:09:15;;;;;;;6.30;4.03;;;;;;;5.73;nan;-23976.75;5031096;28;20210;-83
2022/12/14 09:11:41;;;;;;;8.73;3.90;;;;;;;6.39;nan;-23995.22;5030129;28;20234;-84
2022/12/14 09:14:07;;;;;;;6.23;3.83;;;;;;;6.60;nan;-24001.19;5030230;28;20167;-81
2022/12/14 09:16:32;;;;;;;4.60;3.10;;;;;;;6.88;nan;-24009.13;5030497;28;20552;-82
2022/12/14 09:18:58;;;;;;;4.70;3.47;;;;;;;7.04;nan;-24013.50;5029690;28;20606;-80
2022/12/14 09:21:23;;;;;;;4.93;3.00;;;;;;;6.96;nan;-24011.38;5029608;28;20186;-83
2022/12/14 09:23:49;;;;;;;4.57;2.83;;;;;;;6.56;nan;-24000.19;5030816;28;20201;-83
2022/12/14 09:26:21;;;;;;;4.93;3.30;;;;;;;6.48;nan;-23997.91;5030308;28;20179;-79
2022/12/14 09:28:49;;;;;;;6.03;3.10;;;;;;;5.94;nan;-23982.56;5029022;28;20184;-81
2022/12/14 09:31:17;;;;;;;3.43;2.53;;;;;;;6.09;nan;-23986.84;5030816;28;20206;-83
2022/12/14 09:33:43;;;;;;;8.70;3.97;;;;;;;6.15;nan;-23988.69;5030627;28;20176;-85
2022/12/14 09:36:13;;;;;;;4.70;2.93;;;;;;;5.65;nan;-23974.47;5030599;28;20178;-84
2022/12/14 09:38:39;;;;;;;4.37;3.60;;;;;;;5.30;nan;-23964.81;5032081;28;20207;-77
2022/12/14 09:41:17;;;;;;;3.83;3.20;;;;;;;4.56;nan;-23943.75;5030507;28;20175;-81
2022/12/14 09:43:52;;;;;;;6.90;3.43;;;;;;;4.26;nan;-23935.34;5030157;28;20194;-81
2022/12/14 09:46:44;;;;;;;5.10;3.53;;;;;;;4.39;nan;-23939.19;5029540;28;20225;-83
2022/12/14 09:49:56;;;;;;;4.80;3.17;;;;;;;5.10;nan;-23958.97;5030087;28;20175;-80
2022/12/14 09:52:39;;;;;;;3.60;2.87;;;;;;;5.10;nan;-23958.97;5025458;28;20682;-84
2022/12/14 09:55:16;;;;;;;4.50;3.00;;;;;;;4.99;nan;-23955.84;5031862;28;20603;-84
2022/12/14 09:57:43;;;;;;;5.07;3.50;;;;;;;4.37;nan;-23938.47;5030046;28;20186;-84
2022/12/14 10:00:17;;;;;;;6.80;3.60;;;;;;;4.19;nan;-23933.50;5030460;28;20282;-82
2022/12/14 10:02:58;;;;;;;4.80;3.47;;;;;;;4.94;nan;-23954.41;5030203;28;20234;-83
2022/12/14 10:05:31;;;;;;;3.17;2.73;;;;;;;4.77;nan;-23949.72;5031995;28;20180;-86
2022/12/14 10:08:10;;;;;;;4.23;3.03;;;;;;;4.85;nan;-23952.00;5031390;28;20175;-82
2022/12/14 10:10:58;;;;;;;3.93;3.03;;;;;;;4.61;nan;-23945.31;5031437;28;20214;-82
2022/12/14 10:13:41;;;;;;;4.23;2.60;;;;;;;4.53;nan;-23942.91;5033177;28;20328;-80
2022/12/14 10:16:13;;;;;;;3.90;2.70;;;;;;;4.44;nan;-23940.47;5031970;28;20693;-83
2022/12/14 10:19:00;;;;;;;4.80;2.93;;;;;;;4.90;nan;-23953.44;5030719;28;20232;-83
2022/12/14 10:21:40;;;;;;;6.47;2.90;;;;;;;5.07;nan;-23958.25;5030084;28;20183;-82
2022/12/14 10:24:11;;;;;;;3.30;3.00;;;;;;;5.43;nan;-23968.34;5031316;28;20266;-83
2022/12/14 10:26:50;;;;;;;4.13;2.70;;;;;;;6.07;nan;-23986.25;5036490;28;20188;-82
2022/12/14 10:29:16;;;;;;;4.37;2.83;;;;;;;6.47;nan;-23997.47;5031905;28;20619;-83
2022/12/14 10:31:58;;;;;;;5.30;3.20;;;;;;;6.45;nan;-23996.91;5030464;28;20191;-81
2022/12/14 10:34:28;;;;;;;4.67;3.37;;;;;;;6.32;nan;-23993.38;5031163;28;20206;-80
2022/12/14 10:37:05;;;;;;;6.03;3.30;;;;;;;6.71;nan;-24004.16;5029787;28;20182;-78
2022/12/14 10:39:57;;;;;;;6.40;3.33;;;;;;;6.63;nan;-24002.16;5031044;28;20274;-83
2022/12/14 10:42:25;;;;;;;4.07;3.20;;;;;;;6.43;nan;-23996.50;5033651;28;20720;-81
2022/12/14 10:45:11;;;;;;;4.70;3.53;;;;;;;6.07;nan;-23986.41;5033388;28;20179;-80
2022/12/14 10:47:41;;;;;;;5.43;3.13;;;;;;;5.70;nan;-23975.88;5033342;28;20270;-84
2022/12/14 10:50:36;;;;;;;5.27;3.53;;;;;;;6.02;nan;-23984.97;5033165;28;20186;-78
2022/12/14 10:53:09;;;;;;;5.07;2.90;;;;;;;6.36;nan;-23994.34;5033684;28;20179;-82
2022/12/14 10:55:41;;;;;;;4.90;3.63;;;;;;;6.71;nan;-24004.28;5034394;28;20225;-81
2022/12/14 10:58:09;;;;;;;4.63;3.40;;;;;;;7.42;nan;-24024.16;5034444;28;20172;-82
2022/12/14 11:00:35;;;;;;;7.67;4.33;;;;;;;7.67;nan;-24031.25;5033412;28;20186;-83
2022/12/14 11:03:01;;;;;;;6.23;3.97;;;;;;;7.46;nan;-24025.28;5033263;28;20289;-83
2022/12/14 11:05:36;;;;;;;7.57;4.40;;;;;;;6.69;nan;-24003.72;5034491;28;20184;-82
2022/12/14 11:08:01;;;;;;;4.77;2.87;;;;;;;5.86;nan;-23980.28;5034721;28;20170;-82
2022/12/14 11:10:29;;;;;;;7.93;3.13;;;;;;;6.26;nan;-23991.53;5033624;28;20278;-82
2022/12/14 11:12:54;;;;;;;5.93;3.70;;;;;;;6.17;nan;-23989.09;5033223;28;20185;-83
2022/12/14 11:15:28;;;;;;;4.00;3.37;;;;;;;5.40;nan;-23967.50;5032844;28;20176;-81
2022/12/14 11:18:22;;;;;;;10.70;3.70;;;;;;;5.56;nan;-23971.91;5034278;28;20214;-84
2022/12/14 11:20:59;;;;;;;4.63;3.27;;;;;;;5.99;nan;-23984.00;5032271;28;20187;-82
2022/12/14 11:23:44;;;;;;;3.97;3.20;;;;;;;6.22;nan;-23990.53;5032320;28;20608;-83
2022/12/14 11:26:39;;;;;;;10.60;3.77;;;;;;;6.54;nan;-23999.47;5033229;28;20168;-80
2022/12/14 11:29:15;;;;;;;5.10;3.37;;;;;;;6.54;nan;-23999.47;5033469;28;20244;-81
2022/12/14 11:31:46;;;;;;;4.37;3.30;;;;;;;6.88;nan;-24009.13;5033881;28;20565;-87
2022/12/14 11:34:24;;;;;;;6.77;3.77;;;;;;;6.27;nan;-23991.81;5033609;28;20545;-81
2022/12/14 11:36:50;;;;;;;5.80;4.73;;;;;;;6.58;nan;-24000.59;5032706;28;20171;-81
2022/12/14 11:39:23;;;;;;;4.37;3.40;;;;;;;6.89;nan;-24009.25;5034244;28;20248;-79
2022/12/14 11:42:17;;;;;;;7.57;3.73;;;;;;;7.05;nan;-24013.81;5031906;28;20218;-82
2022/12/14 11:44:45;;;;;;;3.40;3.10;;;;;;;6.84;nan;-24008.00;5009827;28;20602;-85
2022/12/14 11:47:16;;;;;;;5.33;3.73;;;;;;;7.20;nan;-24017.91;5016168;28;20245;-85
2022/12/14 11:49:47;;;;;;;7.63;3.83;;;;;;;7.11;nan;-24015.50;5031947;28;20561;-81
2022/12/14 11:52:23;;;;;;;9.43;3.60;;;;;;;6.18;nan;-23989.53;5031334;28;20199;-86
2022/12/14 11:54:52;;;;;;;4.33;3.33;;;;;;;6.31;nan;-23992.94;5033196;28;20182;-81
2022/12/14 11:57:37;;;;;;;4.90;4.00;;;;;;;5.73;nan;-23976.75;5032058;28;20643;-85
2022/12/14 12:00:22;;;;;;;3.33;2.83;;;;;;;5.88;nan;-23980.88;5033173;28;20175;-87
2022/12/14 12:03:17;;;;;;;10.67;4.43;;;;;;;6.41;nan;-23995.91;5033516;28;20215;-84
2022/12/14 12:05:43;;;;;;;5.90;3.80;;;;;;;6.55;nan;-23999.75;5028146;28;20195;-81
2022/12/14 12:08:23;;;;;;;6.53;3.80;;;;;;;6.75;nan;-24005.44;5034258;28;20178;-83
2022/12/14 12:10:51;;;;;;;7.07;3.60;;;;;;;6.24;nan;-23990.94;5032783;28;20635;-84
2022/12/14 12:13:26;;;;;;;6.50;3.13;;;;;;;6.79;nan;-24006.56;5033209;28;20642;-80
2022/12/14 12:15:55;;;;;;;4.77;3.27;;;;;;;6.82;nan;-24007.28;5044374;28;20190;-83
2022/12/14 12:18:49;;;;;;;4.60;3.33;;;;;;;7.00;nan;-24012.53;5033306;28;20588;-82
2022/12/14 12:21:23;;;;;;;3.93;3.00;;;;;;;6.90;nan;-24009.69;5033757;28;20175;-85
2022/12/14 12:23:56;;;;;;;3.47;3.03;;;;;;;7.13;nan;-24016.06;5012943;28;20263;-88
2022/12/14 12:26:27;;;;;;;4.53;2.80;;;;;;;7.25;nan;-24019.34;5029285;28;20237;-81